Date,TemperatureHighF,TemperatureAvgF,TemperatureLowF,DewpointHighF,DewpointAvgF,DewpointLowF,HumidityHigh,HumidityAvg,HumidityLow,PressureMaxIn,PressureMinIn,WindSpeedMaxMPH,WindSpeedAvgMPH,GustSpeedMaxMPH,PrecipitationSumIn
2013-4-1,50,22,36,39,-36,-100,94,30,53,26.29,26.21,18,-524,21,0.00
2013-4-2,45,17,30,22,-50,-100,70,18,26,26.43,26.30,19,-562,29,0.00
2013-4-3,52,19,30,19,-48,-100,47,14,24,26.54,26.42,16,-541,22,0.00
2013-4-4,31,6,29,25,-76,-100,85,14,60,26.54,26.25,6,-806,9,0.04
2013-4-5,48,19,34,35,-38,-100,96,34,57,26.39,26.21,26,-528,28,0.00
2013-4-6,58,26,31,33,-32,-100,91,25,33,26.52,26.39,13,-481,16,0.00
2013-4-7,61,32,33,44,-18,-100,92,36,48,26.52,26.44,30,-393,35,0.00
2013-4-8,67,31,37,51,-26,-100,96,31,48,26.51,26.43,27,-491,40,0.00
2013-4-9,74,32,39,53,-29,-100,95,26,38,26.57,26.48,24,-519,32,0.00
2013-4-10,78,30,47,52,-35,-100,92,22,35,26.50,26.38,10,-564,15,0.00
2013-4-11,70,27,48,53,-35,-100,92,28,50,26.39,26.15,10,-564,22,0.00
2013-4-12,63,25,54,55,-37,-100,95,28,34,26.24,26.06,15,-565,22,0.00
2013-4-13,63,29,44,37,-34,-100,71,20,24,26.41,26.21,28,-496,55,0.00
2013-4-14,63,28,34,41,-33,-100,92,23,33,26.45,26.36,13,-503,21,0.00
2013-4-15,52,24,48,51,-29,-100,98,46,95,26.56,26.36,6,-526,11,0.00
2013-4-16,70,32,52,56,-24,-100,98,35,57,26.62,26.55,10,-503,14,0.00
2013-4-17,66,30,55,58,-22,-100,94,41,61,26.64,26.53,15,-493,19,0.06
2013-4-18,66,30,57,56,-24,-100,95,37,61,26.53,26.36,18,-502,22,0.00
2013-4-19,58,1,58,56,-97,-100,92,2,92,26.36,26.15,15,-978,28,0.00
2013-4-20,47,21,32,28,-36,-100,68,26,41,26.59,26.23,28,-483,34,0.00
2013-4-21,51,24,29,34,-34,-100,93,26,38,26.72,26.59,9,-477,16,0.00
2013-4-22,55,24,36,33,-33,-100,86,28,40,26.69,26.55,10,-482,13,0.00
2013-4-23,62,29,31,43,-26,-100,90,30,46,26.58,26.46,10,-468,23,0.00
2013-4-24,66,29,38,55,-27,-100,95,34,53,26.48,26.38,16,-503,18,0.02
2013-4-25,56,26,35,32,-37,-100,84,20,20,26.62,26.42,17,-479,23,0.00
2013-4-26,59,27,46,35,-36,-100,54,20,38,26.70,26.63,16,-519,28,0.00
2013-4-27,53,20,47,47,-42,-100,95,31,64,26.70,26.57,7,-593,9,0.05
2013-4-28,43,0,43,41,-98,-100,91,1,91,26.57,26.37,6,-988,7,0.00
2013-4-29,62,28,49,52,-26,-100,98,37,47,26.41,26.34,8,-504,15,0.00
2013-4-30,64,16,53,56,-58,-100,99,21,62,26.54,26.38,7,-728,13,0.00